Time;durP1;ratioP1;P1;durP2;ratioP2;P2;SDS_P1;SDS_P2;PMS_P1;PMS_P2;Temp;Humidity;BMP_temperature;BMP_pressure;BME280_temperature;BME280_humidity;BME280_pressure;Samples;Min_cycle;Max_cycle;Signal;HPM_P1;HPM_P2
2023/04/03 00:00:43;;;;;;;5.40;2.00;;;;;;;-128.00;-1.00;-1.00;98015;285;1003578;-30
2023/04/03 00:03:09;;;;;;;3.90;1.20;;;;;;;-128.00;-1.00;-1.00;97902;295;1003284;-33
2023/04/03 00:05:35;;;;;;;11.90;2.60;;;;;;;-128.00;-1.00;-1.00;97833;295;1003093;-34
2023/04/03 00:08:01;;;;;;;4.00;1.50;;;;;;;-128.00;-1.00;-1.00;97922;295;1003593;-34
2023/04/03 00:10:27;;;;;;;4.40;1.70;;;;;;;-128.00;-1.00;-1.00;97959;294;1003690;-34
2023/04/03 00:12:53;;;;;;;8.80;2.10;;;;;;;-128.00;-1.00;-1.00;98017;295;1003348;-30
2023/04/03 00:15:19;;;;;;;4.40;1.80;;;;;;;-128.00;-1.00;-1.00;98003;295;1002928;-31
2023/04/03 00:17:45;;;;;;;6.30;2.10;;;;;;;-128.00;-1.00;-1.00;98035;295;1004414;-34
2023/04/03 00:20:11;;;;;;;6.10;2.70;;;;;;;-128.00;-1.00;-1.00;97894;295;1003135;-31
2023/04/03 00:22:36;;;;;;;6.70;2.20;;;;;;;-128.00;-1.00;-1.00;97862;294;1002775;-33
2023/04/03 00:25:03;;;;;;;5.00;1.10;;;;;;;-128.00;-1.00;-1.00;98062;295;1002933;-33
2023/04/03 00:27:28;;;;;;;13.30;2.70;;;;;;;-128.00;-1.00;-1.00;98090;283;1004723;-31
2023/04/03 00:29:54;;;;;;;9.70;1.60;;;;;;;-128.00;-1.00;-1.00;97879;294;1003686;-33
2023/04/03 00:32:19;;;;;;;8.10;1.70;;;;;;;-128.00;-1.00;-1.00;97849;295;1004666;-33
2023/04/03 00:34:45;;;;;;;9.70;1.40;;;;;;;-128.00;-1.00;-1.00;97836;295;1003067;-34
2023/04/03 00:37:10;;;;;;;4.70;1.90;;;;;;;-128.00;-1.00;-1.00;97953;296;1003152;-29
2023/04/03 00:39:36;;;;;;;8.40;1.60;;;;;;;-128.00;-1.00;-1.00;97855;285;1003516;-33
2023/04/03 00:42:02;;;;;;;6.00;1.40;;;;;;;-128.00;-1.00;-1.00;97923;295;1003454;-33
2023/04/03 00:45:07;;;;;;;4.40;0.90;;;;;;;-128.00;-1.00;-1.00;97884;294;1003694;-29
2023/04/03 00:47:33;;;;;;;2.70;1.10;;;;;;;-128.00;-1.00;-1.00;98050;295;1005437;-34
2023/04/03 00:49:59;;;;;;;1.50;0.70;;;;;;;-128.00;-1.00;-1.00;97923;295;1003384;-34
2023/04/03 00:52:27;;;;;;;8.40;1.10;;;;;;;-128.00;-1.00;-1.00;97879;295;1003149;-34
2023/04/03 00:54:54;;;;;;;1.20;0.40;;;;;;;-128.00;-1.00;-1.00;97977;295;1004219;-31
2023/04/03 00:57:20;;;;;;;8.20;0.90;;;;;;;-128.00;-1.00;-1.00;97992;295;1003601;-32
2023/04/03 00:59:49;;;;;;;4.70;1.00;;;;;;;-128.00;-1.00;-1.00;97786;295;1002683;-29
2023/04/03 01:02:15;;;;;;;11.20;1.10;;;;;;;-128.00;-1.00;-1.00;97865;295;1003298;-32
2023/04/03 01:04:42;;;;;;;4.90;1.00;;;;;;;-128.00;-1.00;-1.00;97994;283;1003932;-27
2023/04/03 01:07:10;;;;;;;2.40;0.70;;;;;;;-128.00;-1.00;-1.00;97861;297;1002771;-28
2023/04/03 01:09:36;;;;;;;5.60;0.90;;;;;;;-128.00;-1.00;-1.00;97912;295;1002596;-30
2023/04/03 01:12:17;;;;;;;5.90;1.30;;;;;;;-128.00;-1.00;-1.00;97953;295;1002995;-34
2023/04/03 01:14:46;;;;;;;5.30;1.00;;;;;;;-128.00;-1.00;-1.00;97995;295;1003243;-30
2023/04/03 01:17:28;;;;;;;9.10;1.20;;;;;;;-128.00;-1.00;-1.00;97828;295;1002604;-34
2023/04/03 01:20:08;;;;;;;4.60;0.80;;;;;;;-128.00;-1.00;-1.00;97910;295;1003129;-34
2023/04/03 01:23:06;;;;;;;6.10;1.70;;;;;;;-128.00;-1.00;-1.00;97938;295;1003488;-31
2023/04/03 01:25:32;;;;;;;4.60;1.20;;;;;;;-128.00;-1.00;-1.00;97945;295;1003145;-35
2023/04/03 01:27:58;;;;;;;1.70;1.30;;;;;;;-128.00;-1.00;-1.00;97826;295;1002909;-34
2023/04/03 01:30:25;;;;;;;3.10;0.80;;;;;;;-128.00;-1.00;-1.00;98028;295;1004035;-34
2023/04/03 01:32:51;;;;;;;4.00;1.60;;;;;;;-128.00;-1.00;-1.00;98070;295;1003897;-34
2023/04/03 01:35:17;;;;;;;10.00;1.40;;;;;;;-128.00;-1.00;-1.00;97913;295;1003791;-30
2023/04/03 01:37:42;;;;;;;7.20;2.10;;;;;;;-128.00;-1.00;-1.00;97919;295;1003503;-37
2023/04/03 01:40:08;;;;;;;5.80;1.40;;;;;;;-128.00;-1.00;-1.00;97945;295;1003493;-32
2023/04/03 01:42:34;;;;;;;13.30;1.90;;;;;;;-128.00;-1.00;-1.00;97971;295;1003140;-34
2023/04/03 01:45:00;;;;;;;1.80;1.00;;;;;;;-128.00;-1.00;-1.00;97848;295;1003475;-33
2023/04/03 01:47:25;;;;;;;5.30;1.80;;;;;;;-128.00;-1.00;-1.00;97991;295;1004791;-28
2023/04/03 01:49:51;;;;;;;2.80;1.10;;;;;;;-128.00;-1.00;-1.00;97927;295;1004356;-34
2023/04/03 01:52:16;;;;;;;2.40;0.80;;;;;;;-128.00;-1.00;-1.00;97832;297;1004344;-34
2023/04/03 01:54:42;;;;;;;3.90;1.30;;;;;;;-128.00;-1.00;-1.00;97930;295;1003603;-32
2023/04/03 01:57:07;;;;;;;10.60;1.90;;;;;;;-128.00;-1.00;-1.00;97999;299;1002953;-29
2023/04/03 01:59:33;;;;;;;9.40;1.70;;;;;;;-128.00;-1.00;-1.00;97938;295;1002892;-32
2023/04/03 02:01:59;;;;;;;5.90;1.10;;;;;;;-128.00;-1.00;-1.00;44848;295;7504751;-33
2023/04/03 02:04:27;;;;;;;8.40;2.40;;;;;;;-128.00;-1.00;-1.00;20386;295;7504994;-34
2023/04/03 02:06:55;;;;;;;14.80;1.60;;;;;;;-128.00;-1.00;-1.00;20358;295;7504333;-32
2023/04/03 02:09:21;;;;;;;2.80;1.20;;;;;;;-128.00;-1.00;-1.00;23114;295;7505478;-32
2023/04/03 02:11:47;;;;;;;5.10;1.40;;;;;;;-128.00;-1.00;-1.00;18873;318;7504684;-31
2023/04/03 02:14:13;;;;;;;14.50;1.80;;;;;;;-128.00;-1.00;-1.00;18855;301;7504293;-30
2023/04/03 02:16:41;;;;;;;3.70;1.20;;;;;;;-128.00;-1.00;-1.00;20363;339;7505141;-34
2023/04/03 02:19:07;;;;;;;13.70;2.70;;;;;;;-128.00;-1.00;-1.00;18910;311;7505431;-30
2023/04/03 02:21:34;;;;;;;6.20;2.40;;;;;;;-128.00;-1.00;-1.00;19572;295;7505271;-32
2023/04/03 02:24:02;;;;;;;4.00;2.00;;;;;;;-128.00;-1.00;-1.00;18931;322;7505411;-33
2023/04/03 02:26:28;;;;;;;12.60;2.20;;;;;;;-128.00;-1.00;-1.00;18878;303;7505264;-33
2023/04/03 02:28:54;;;;;;;8.90;2.20;;;;;;;-128.00;-1.00;-1.00;18852;295;7504607;-34
2023/04/03 02:31:20;;;;;;;12.70;2.80;;;;;;;-128.00;-1.00;-1.00;18868;295;7505664;-34
2023/04/03 02:33:47;;;;;;;3.10;1.70;;;;;;;-128.00;-1.00;-1.00;18872;295;7505280;-30
2023/04/03 02:36:14;;;;;;;7.30;1.90;;;;;;;-128.00;-1.00;-1.00;18883;295;7505129;-31
2023/04/03 02:38:40;;;;;;;5.80;2.40;;;;;;;-128.00;-1.00;-1.00;18462;295;7504241;-31
2023/04/03 02:41:07;;;;;;;7.50;2.20;;;;;;;-128.00;-1.00;-1.00;18474;295;7504595;-33
2023/04/03 02:43:33;;;;;;;9.20;2.40;;;;;;;-128.00;-1.00;-1.00;18471;295;7505997;-31
2023/04/03 02:45:58;;;;;;;3.10;1.00;;;;;;;-128.00;-1.00;-1.00;18487;346;7506907;-34
2023/04/03 02:48:24;;;;;;;2.10;1.50;;;;;;;-128.00;-1.00;-1.00;18458;297;7506254;-31
2023/04/03 02:50:50;;;;;;;5.50;2.20;;;;;;;-128.00;-1.00;-1.00;18489;335;7505771;-31
2023/04/03 02:53:16;;;;;;;10.90;2.10;;;;;;;-128.00;-1.00;-1.00;18471;297;7505110;-30
2023/04/03 02:55:42;;;;;;;9.40;2.00;;;;;;;-128.00;-1.00;-1.00;18465;307;7504980;-30
2023/04/03 02:58:09;;;;;;;5.90;2.20;;;;;;;-128.00;-1.00;-1.00;19591;295;7504569;-30
2023/04/03 03:00:35;;;;;;;4.50;1.50;;;;;;;-128.00;-1.00;-1.00;18902;287;7504909;-29
2023/04/03 03:03:02;;;;;;;6.70;2.20;;;;;;;-128.00;-1.00;-1.00;18897;320;7505102;-33
2023/04/03 03:05:28;;;;;;;11.40;1.90;;;;;;;-128.00;-1.00;-1.00;18856;297;7505229;-30
2023/04/03 03:07:55;;;;;;;4.50;2.00;;;;;;;-128.00;-1.00;-1.00;18457;348;7506328;-31
2023/04/03 03:10:21;;;;;;;3.50;1.20;;;;;;;-128.00;-1.00;-1.00;18488;347;7504727;-33
2023/04/03 03:12:46;;;;;;;4.10;1.50;;;;;;;-128.00;-1.00;-1.00;18506;295;7505020;-33
2023/04/03 03:15:12;;;;;;;4.10;2.10;;;;;;;-128.00;-1.00;-1.00;18507;295;7504718;-31
2023/04/03 03:17:38;;;;;;;3.70;1.40;;;;;;;-128.00;-1.00;-1.00;18492;294;7505179;-31
2023/04/03 03:20:05;;;;;;;3.80;1.90;;;;;;;-128.00;-1.00;-1.00;18486;295;7506683;-35
2023/04/03 03:22:30;;;;;;;8.00;1.60;;;;;;;-128.00;-1.00;-1.00;18446;295;7506149;-31
2023/04/03 03:24:56;;;;;;;5.80;2.20;;;;;;;-128.00;-1.00;-1.00;18466;295;7505140;-31
2023/04/03 03:27:22;;;;;;;3.40;1.80;;;;;;;-128.00;-1.00;-1.00;18858;295;7504750;-32
2023/04/03 03:29:48;;;;;;;8.90;2.10;;;;;;;-128.00;-1.00;-1.00;18863;318;7504458;-34
2023/04/03 03:32:14;;;;;;;5.80;2.20;;;;;;;-128.00;-1.00;-1.00;18882;295;7506480;-31
2023/04/03 03:34:41;;;;;;;10.10;4.10;;;;;;;-128.00;-1.00;-1.00;18892;295;7505300;-31
2023/04/03 03:37:07;;;;;;;19.40;3.50;;;;;;;-128.00;-1.00;-1.00;18896;339;7504490;-34
2023/04/03 03:39:33;;;;;;;20.60;2.00;;;;;;;-128.00;-1.00;-1.00;18899;295;7504989;-30
2023/04/03 03:41:59;;;;;;;5.20;2.60;;;;;;;-128.00;-1.00;-1.00;18861;335;7504758;-34
2023/04/03 03:44:26;;;;;;;7.00;2.10;;;;;;;-128.00;-1.00;-1.00;18861;295;7504712;-31
2023/04/03 03:46:52;;;;;;;9.30;2.00;;;;;;;-128.00;-1.00;-1.00;18855;295;7505312;-34
2023/04/03 03:49:18;;;;;;;10.80;2.10;;;;;;;-128.00;-1.00;-1.00;18878;347;7505295;-34
2023/04/03 03:51:45;;;;;;;8.10;2.50;;;;;;;-128.00;-1.00;-1.00;18870;285;7505079;-30
2023/04/03 03:54:11;;;;;;;10.60;2.40;;;;;;;-128.00;-1.00;-1.00;18862;310;7504451;-30
2023/04/03 03:56:37;;;;;;;5.20;2.10;;;;;;;-128.00;-1.00;-1.00;18902;295;7504390;-34
2023/04/03 03:59:04;;;;;;;14.90;2.80;;;;;;;-128.00;-1.00;-1.00;18885;310;7504930;-32
2023/04/03 04:01:30;;;;;;;1.50;1.20;;;;;;;-128.00;-1.00;-1.00;18467;295;7504880;-33
2023/04/03 04:03:56;;;;;;;13.70;2.50;;;;;;;-128.00;-1.00;-1.00;18482;295;7505356;-35
2023/04/03 04:06:21;;;;;;;5.40;2.50;;;;;;;-128.00;-1.00;-1.00;18469;303;7506371;-34
2023/04/03 04:08:47;;;;;;;1.90;1.00;;;;;;;-128.00;-1.00;-1.00;18490;335;7506314;-35
2023/04/03 04:11:12;;;;;;;8.30;2.20;;;;;;;-128.00;-1.00;-1.00;18462;296;7505166;-35
2023/04/03 04:13:38;;;;;;;4.40;1.50;;;;;;;-128.00;-1.00;-1.00;18448;297;7505067;-34
2023/04/03 04:16:05;;;;;;;4.00;1.50;;;;;;;-128.00;-1.00;-1.00;18452;298;7504777;-34
2023/04/03 04:18:30;;;;;;;8.90;1.60;;;;;;;-128.00;-1.00;-1.00;18501;295;7504576;-34
2023/04/03 04:20:56;;;;;;;7.10;2.20;;;;;;;-128.00;-1.00;-1.00;18900;288;7504812;-34
2023/04/03 04:23:23;;;;;;;6.70;2.60;;;;;;;-128.00;-1.00;-1.00;18869;295;7504421;-35
2023/04/03 04:25:49;;;;;;;4.60;2.50;;;;;;;-128.00;-1.00;-1.00;18501;295;7505968;-34
2023/04/03 04:28:15;;;;;;;2.30;1.10;;;;;;;-128.00;-1.00;-1.00;18451;295;7505252;-35
2023/04/03 04:30:41;;;;;;;3.70;2.10;;;;;;;-128.00;-1.00;-1.00;18468;306;7506643;-34
2023/04/03 04:33:07;;;;;;;3.90;2.10;;;;;;;-128.00;-1.00;-1.00;18479;295;7504792;-31
2023/04/03 04:35:33;;;;;;;5.00;2.00;;;;;;;-128.00;-1.00;-1.00;18473;295;7504573;-30
2023/04/03 05:16:36;;;;;;;11.70;4.50;;;;;;;-103.03;19.20;20042.08;98179;284;1544292;-35
2023/04/03 05:19:04;;;;;;;5.50;2.70;;;;;;;-128.00;-1.00;-1.00;60478;298;7503642;-33
2023/04/03 05:21:32;;;;;;;12.00;3.90;;;;;;;-128.00;-1.00;-1.00;18858;297;7504849;-32
2023/04/03 05:23:59;;;;;;;8.50;2.40;;;;;;;-128.00;-1.00;-1.00;18494;296;7504305;-33
2023/04/03 05:26:26;;;;;;;17.90;4.30;;;;;;;-128.00;-1.00;-1.00;18456;296;7504404;-34
2023/04/03 05:28:51;;;;;;;7.20;2.70;;;;;;;-128.00;-1.00;-1.00;18456;297;7504604;-30
2023/04/03 05:31:17;;;;;;;5.30;2.50;;;;;;;-128.00;-1.00;-1.00;18460;296;7504864;-34
2023/04/03 05:33:43;;;;;;;13.20;4.50;;;;;;;-128.00;-1.00;-1.00;18867;297;7504279;-36
2023/04/03 05:36:09;;;;;;;13.50;3.80;;;;;;;-128.00;-1.00;-1.00;18882;296;7504524;-32
2023/04/03 05:38:36;;;;;;;9.00;3.40;;;;;;;-128.00;-1.00;-1.00;18875;288;7505565;-33
2023/04/03 05:41:02;;;;;;;11.90;3.90;;;;;;;-128.00;-1.00;-1.00;18883;348;7504739;-34
2023/04/03 05:43:28;;;;;;;6.30;3.10;;;;;;;-128.00;-1.00;-1.00;18887;284;7505068;-33
2023/04/03 05:45:54;;;;;;;6.10;3.40;;;;;;;-128.00;-1.00;-1.00;18909;296;7504888;-31
2023/04/03 05:48:21;;;;;;;8.10;3.50;;;;;;;-128.00;-1.00;-1.00;18874;296;7504380;-34
2023/04/03 05:50:47;;;;;;;38.30;4.40;;;;;;;-128.00;-1.00;-1.00;18858;319;7504309;-30
2023/04/03 05:53:17;;;;;;;11.60;3.20;;;;;;;-128.00;-1.00;-1.00;18882;319;7504615;-32
2023/04/03 05:55:43;;;;;;;8.90;2.40;;;;;;;-128.00;-1.00;-1.00;18456;348;7506665;-31
2023/04/03 05:58:09;;;;;;;6.70;2.60;;;;;;;-128.00;-1.00;-1.00;18880;296;7504479;-31
2023/04/03 06:00:36;;;;;;;11.40;6.60;;;;;;;-128.00;-1.00;-1.00;18857;296;7505076;-31
2023/04/03 06:03:02;;;;;;;16.40;4.10;;;;;;;-128.00;-1.00;-1.00;18848;341;7504347;-31
2023/04/03 06:05:28;;;;;;;6.10;3.50;;;;;;;-128.00;-1.00;-1.00;18901;288;7504221;-30
2023/04/03 06:07:55;;;;;;;4.70;2.80;;;;;;;-128.00;-1.00;-1.00;18879;297;7504671;-34
2023/04/03 06:10:21;;;;;;;4.20;3.30;;;;;;;-128.00;-1.00;-1.00;18458;297;7504430;-34
2023/04/03 06:12:47;;;;;;;9.10;2.60;;;;;;;-128.00;-1.00;-1.00;18477;296;7506087;-31
2023/04/03 06:15:13;;;;;;;10.10;3.30;;;;;;;-128.00;-1.00;-1.00;18458;296;7504851;-34
2023/04/03 06:17:39;;;;;;;5.40;3.00;;;;;;;-128.00;-1.00;-1.00;18468;296;7504327;-30
2023/04/03 06:20:05;;;;;;;9.00;2.20;;;;;;;-128.00;-1.00;-1.00;18458;296;7505059;-33
2023/04/03 06:22:31;;;;;;;5.80;2.40;;;;;;;-128.00;-1.00;-1.00;18459;348;7504617;-33
2023/04/03 06:24:57;;;;;;;8.80;2.40;;;;;;;-128.00;-1.00;-1.00;18431;299;7504698;-34
2023/04/03 06:27:23;;;;;;;6.20;2.60;;;;;;;-128.00;-1.00;-1.00;18453;308;7505567;-30
2023/04/03 06:29:49;;;;;;;8.30;3.50;;;;;;;-128.00;-1.00;-1.00;18470;296;7505986;-30
2023/04/03 06:32:15;;;;;;;3.90;1.30;;;;;;;-128.00;-1.00;-1.00;18479;289;7504951;-34
2023/04/03 06:34:41;;;;;;;28.40;2.80;;;;;;;-128.00;-1.00;-1.00;18447;296;7504281;-30
2023/04/03 06:37:14;;;;;;;7.70;3.20;;;;;;;-128.00;-1.00;-1.00;18474;296;7504885;-33
2023/04/03 06:39:40;;;;;;;12.00;2.20;;;;;;;-128.00;-1.00;-1.00;18441;296;7506419;-29
2023/04/03 06:42:05;;;;;;;7.50;2.30;;;;;;;-128.00;-1.00;-1.00;18473;285;7504784;-30
2023/04/03 06:44:33;;;;;;;1.70;0.90;;;;;;;-128.00;-1.00;-1.00;18455;296;7504494;-34
2023/04/03 06:46:59;;;;;;;3.20;1.40;;;;;;;-128.00;-1.00;-1.00;18485;285;7504115;-30
2023/04/03 06:49:26;;;;;;;8.80;2.90;;;;;;;-128.00;-1.00;-1.00;18473;348;7504357;-31
2023/04/03 06:51:51;;;;;;;7.00;3.20;;;;;;;-128.00;-1.00;-1.00;18469;336;7505100;-33
2023/04/03 06:54:18;;;;;;;13.60;1.50;;;;;;;-128.00;-1.00;-1.00;18475;289;7504728;-30
2023/04/03 06:56:44;;;;;;;8.60;2.50;;;;;;;-128.00;-1.00;-1.00;18477;296;7504587;-34
2023/04/03 06:59:10;;;;;;;5.00;1.40;;;;;;;-128.00;-1.00;-1.00;18466;289;7505765;-30
2023/04/03 07:01:35;;;;;;;2.70;0.90;;;;;;;-128.00;-1.00;-1.00;18462;285;7506510;-33
2023/04/03 07:04:02;;;;;;;4.70;2.70;;;;;;;-128.00;-1.00;-1.00;18870;308;7504867;-30
2023/04/03 07:06:28;;;;;;;5.80;2.00;;;;;;;-128.00;-1.00;-1.00;18870;296;7505675;-31
2023/04/03 07:08:55;;;;;;;8.40;2.80;;;;;;;-128.00;-1.00;-1.00;18895;289;7505622;-30
2023/04/03 07:11:21;;;;;;;10.60;3.00;;;;;;;-128.00;-1.00;-1.00;18882;296;7504559;-34
2023/04/03 07:13:48;;;;;;;21.40;2.50;;;;;;;-128.00;-1.00;-1.00;18881;296;7504292;-30
2023/04/03 07:16:13;;;;;;;9.60;0.80;;;;;;;-128.00;-1.00;-1.00;18444;298;7504964;-31
2023/04/03 07:18:39;;;;;;;3.30;1.60;;;;;;;-128.00;-1.00;-1.00;18464;288;7505210;-35
2023/04/03 07:21:05;;;;;;;9.30;2.90;;;;;;;-128.00;-1.00;-1.00;18466;296;7504529;-30
2023/04/03 07:23:31;;;;;;;3.20;1.30;;;;;;;-128.00;-1.00;-1.00;18442;298;7504921;-34
2023/04/03 07:25:57;;;;;;;3.10;1.90;;;;;;;-128.00;-1.00;-1.00;18476;288;7506980;-35
2023/04/03 07:28:24;;;;;;;7.30;1.80;;;;;;;-128.00;-1.00;-1.00;18499;289;7504464;-34
2023/04/03 07:30:51;;;;;;;11.00;2.60;;;;;;;-128.00;-1.00;-1.00;18455;297;7504548;-34
2023/04/03 07:33:18;;;;;;;4.20;1.30;;;;;;;-128.00;-1.00;-1.00;18448;296;7504386;-34
2023/04/03 07:35:44;;;;;;;9.30;4.10;;;;;;;-128.00;-1.00;-1.00;18448;296;7504566;-34
2023/04/03 07:38:10;;;;;;;7.30;2.30;;;;;;;-128.00;-1.00;-1.00;18475;296;7505806;-33
2023/04/03 07:40:36;;;;;;;10.10;3.60;;;;;;;-128.00;-1.00;-1.00;18438;288;7506304;-34
2023/04/03 07:43:02;;;;;;;18.50;5.20;;;;;;;-128.00;-1.00;-1.00;18435;298;7505767;-30
2023/04/03 07:45:28;;;;;;;5.00;2.50;;;;;;;-128.00;-1.00;-1.00;18493;312;7505315;-31
2023/04/03 07:47:53;;;;;;;2.60;1.70;;;;;;;-128.00;-1.00;-1.00;18490;296;7504669;-35
2023/04/03 07:50:19;;;;;;;3.50;1.50;;;;;;;-128.00;-1.00;-1.00;18487;308;7504768;-31
2023/04/03 07:52:46;;;;;;;8.90;4.10;;;;;;;-128.00;-1.00;-1.00;18888;348;7504514;-31
2023/04/03 07:55:12;;;;;;;7.80;2.10;;;;;;;-128.00;-1.00;-1.00;18463;296;7505922;-34
2023/04/03 07:57:37;;;;;;;9.70;1.80;;;;;;;-128.00;-1.00;-1.00;18469;296;7504146;-30
2023/04/03 08:00:04;;;;;;;6.30;1.80;;;;;;;-128.00;-1.00;-1.00;18484;348;7505951;-31
2023/04/03 08:02:31;;;;;;;5.60;1.60;;;;;;;-128.00;-1.00;-1.00;18414;300;7505707;-34
2023/04/03 08:04:58;;;;;;;9.00;3.70;;;;;;;-128.00;-1.00;-1.00;18493;285;7504659;-31
2023/04/03 08:07:25;;;;;;;0.70;0.70;;;;;;;-128.00;-1.00;-1.00;18465;289;7506534;-34
2023/04/03 08:09:51;;;;;;;6.20;2.50;;;;;;;-128.00;-1.00;-1.00;18494;296;7504352;-34
2023/04/03 08:12:17;;;;;;;12.60;2.60;;;;;;;-128.00;-1.00;-1.00;18453;289;7505968;-31
2023/04/03 08:14:43;;;;;;;6.20;2.70;;;;;;;-128.00;-1.00;-1.00;18462;297;7504714;-31
2023/04/03 08:17:11;;;;;;;4.20;1.50;;;;;;;-128.00;-1.00;-1.00;18475;285;7504438;-34
2023/04/03 08:19:38;;;;;;;3.00;1.60;;;;;;;-128.00;-1.00;-1.00;18443;296;7504456;-34
2023/04/03 08:22:04;;;;;;;5.00;1.10;;;;;;;-128.00;-1.00;-1.00;18467;289;7506434;-30
2023/04/03 08:24:31;;;;;;;5.30;1.00;;;;;;;-128.00;-1.00;-1.00;18468;289;7505903;-30
2023/04/03 08:26:57;;;;;;;2.70;1.30;;;;;;;-128.00;-1.00;-1.00;18465;301;7506056;-34
2023/04/03 08:29:24;;;;;;;2.30;0.90;;;;;;;-128.00;-1.00;-1.00;18458;297;7505078;-31
2023/04/03 08:31:50;;;;;;;3.40;2.10;;;;;;;-128.00;-1.00;-1.00;18464;296;7505009;-31
2023/04/03 08:34:16;;;;;;;2.30;1.40;;;;;;;-128.00;-1.00;-1.00;18477;308;7504861;-34
2023/04/03 08:36:42;;;;;;;2.80;1.70;;;;;;;-128.00;-1.00;-1.00;18445;308;7504344;-31
2023/04/03 08:39:08;;;;;;;1.50;0.50;;;;;;;-128.00;-1.00;-1.00;18501;296;7505814;-33
2023/04/03 08:41:38;;;;;;;4.00;1.80;;;;;;;-128.00;-1.00;-1.00;18866;333;7506923;-34
2023/04/03 08:44:23;;;;;;;7.50;1.10;;;;;;;-128.00;-1.00;-1.00;18502;296;7504389;-30
2023/04/03 08:47:21;;;;;;;8.40;2.70;;;;;;;-128.00;-1.00;-1.00;18463;285;7505365;-35
2023/04/03 08:49:52;;;;;;;5.30;1.90;;;;;;;-128.00;-1.00;-1.00;18496;296;7504976;-35
2023/04/03 08:52:31;;;;;;;2.90;1.60;;;;;;;-128.00;-1.00;-1.00;18478;298;7504740;-31
2023/04/03 08:54:58;;;;;;;9.50;4.60;;;;;;;-128.00;-1.00;-1.00;18455;296;7505343;-35
2023/04/03 08:57:33;;;;;;;5.40;1.20;;;;;;;-128.00;-1.00;-1.00;18471;299;7505031;-35
2023/04/03 09:00:17;;;;;;;3.20;1.10;;;;;;;-128.00;-1.00;-1.00;18481;296;7506263;-32
2023/04/03 09:02:50;;;;;;;5.10;2.20;;;;;;;-128.00;-1.00;-1.00;18487;296;7506282;-32
2023/04/03 09:05:27;;;;;;;25.50;8.00;;;;;;;-128.00;-1.00;-1.00;18467;285;7505027;-32
2023/04/03 09:08:07;;;;;;;7.30;2.50;;;;;;;-128.00;-1.00;-1.00;18469;298;7505499;-35
2023/04/03 09:10:34;;;;;;;4.80;1.70;;;;;;;-128.00;-1.00;-1.00;18475;336;7506048;-32
2023/04/03 09:13:04;;;;;;;2.00;0.90;;;;;;;-128.00;-1.00;-1.00;18473;342;7505860;-31
2023/04/03 09:15:30;;;;;;;2.70;0.60;;;;;;;-128.00;-1.00;-1.00;18504;296;7505607;-35
2023/04/03 09:18:10;;;;;;;3.80;1.00;;;;;;;-128.00;-1.00;-1.00;18462;349;7504615;-31
2023/04/03 09:21:02;;;;;;;2.70;1.30;;;;;;;-128.00;-1.00;-1.00;18474;297;7506153;-33
2023/04/03 09:23:32;;;;;;;4.10;1.10;;;;;;;-128.00;-1.00;-1.00;18453;308;7504357;-35
2023/04/03 09:26:04;;;;;;;4.10;1.20;;;;;;;-128.00;-1.00;-1.00;18446;299;7505161;-35
2023/04/03 09:28:34;;;;;;;6.00;1.50;;;;;;;-128.00;-1.00;-1.00;18431;296;7506461;-31
2023/04/03 09:31:00;;;;;;;1.50;0.80;;;;;;;-128.00;-1.00;-1.00;18486;289;7505766;-34
2023/04/03 09:33:26;;;;;;;1.70;0.60;;;;;;;-128.00;-1.00;-1.00;18450;296;7506235;-34
2023/04/03 09:35:51;;;;;;;1.60;0.70;;;;;;;-128.00;-1.00;-1.00;18471;347;7505068;-31
2023/04/03 09:38:20;;;;;;;0.60;0.40;;;;;;;-128.00;-1.00;-1.00;18482;296;7504724;-34
2023/04/03 09:40:48;;;;;;;6.70;0.90;;;;;;;-128.00;-1.00;-1.00;18471;289;7504389;-34
2023/04/03 09:43:22;;;;;;;1.40;0.70;;;;;;;-128.00;-1.00;-1.00;18453;289;7507271;-30
2023/04/03 09:45:49;;;;;;;6.00;1.40;;;;;;;-128.00;-1.00;-1.00;18469;296;7504814;-35
2023/04/03 09:48:17;;;;;;;2.30;0.90;;;;;;;-128.00;-1.00;-1.00;18482;296;7505731;-31
2023/04/03 09:50:50;;;;;;;0.60;0.50;;;;;;;-128.00;-1.00;-1.00;18454;298;7505160;-31
2023/04/03 09:53:30;;;;;;;6.40;1.30;;;;;;;-128.00;-1.00;-1.00;18478;296;7504193;-30
2023/04/03 09:55:56;;;;;;;4.90;2.20;;;;;;;-128.00;-1.00;-1.00;18454;296;7504552;-34
2023/04/03 09:58:33;;;;;;;2.70;1.60;;;;;;;-128.00;-1.00;-1.00;18473;298;7504949;-30
2023/04/03 10:01:00;;;;;;;3.50;2.00;;;;;;;-128.00;-1.00;-1.00;18468;296;7504535;-34
2023/04/03 10:03:31;;;;;;;10.20;3.00;;;;;;;-128.00;-1.00;-1.00;18480;296;7505853;-34
2023/04/03 10:05:57;;;;;;;2.20;0.90;;;;;;;-128.00;-1.00;-1.00;18491;289;7504986;-34
2023/04/03 10:08:26;;;;;;;7.70;2.40;;;;;;;-128.00;-1.00;-1.00;18463;298;7506391;-32
2023/04/03 10:11:12;;;;;;;0.90;0.40;;;;;;;-128.00;-1.00;-1.00;18442;285;7504450;-34
2023/04/03 10:13:51;;;;;;;1.80;1.10;;;;;;;-128.00;-1.00;-1.00;18454;296;7504793;-34
2023/04/03 10:16:20;;;;;;;2.00;0.90;;;;;;;-128.00;-1.00;-1.00;18481;296;7506038;-31
2023/04/03 10:18:53;;;;;;;16.90;0.90;;;;;;;-128.00;-1.00;-1.00;18492;296;7504891;-34
2023/04/03 10:21:42;;;;;;;3.60;0.70;;;;;;;-128.00;-1.00;-1.00;18436;345;7505003;-31
2023/04/03 10:24:30;;;;;;;4.80;1.40;;;;;;;-128.00;-1.00;-1.00;18494;345;7506474;-31
2023/04/03 10:27:13;;;;;;;2.60;1.00;;;;;;;-128.00;-1.00;-1.00;18482;289;7504582;-35
2023/04/03 10:29:53;;;;;;;2.10;1.30;;;;;;;-128.00;-1.00;-1.00;18463;321;7505822;-31
2023/04/03 10:32:43;;;;;;;4.10;1.80;;;;;;;-128.00;-1.00;-1.00;18460;289;7505428;-31
2023/04/03 10:35:39;;;;;;;3.50;2.80;;;;;;;-128.00;-1.00;-1.00;18448;289;7504323;-31
2023/04/03 10:38:15;;;;;;;13.50;1.90;;;;;;;-128.00;-1.00;-1.00;18506;289;7506337;-37
2023/04/03 10:41:06;;;;;;;2.50;1.30;;;;;;;-128.00;-1.00;-1.00;18489;297;7505014;-35
2023/04/03 10:43:50;;;;;;;3.20;2.00;;;;;;;-128.00;-1.00;-1.00;18481;296;7506183;-31
2023/04/03 10:46:40;;;;;;;3.10;1.20;;;;;;;-128.00;-1.00;-1.00;18492;296;7506221;-32
2023/04/03 10:49:21;;;;;;;1.80;0.70;;;;;;;-128.00;-1.00;-1.00;18513;296;7504384;-31
2023/04/03 10:51:48;;;;;;;1.80;1.50;;;;;;;-128.00;-1.00;-1.00;18483;289;7505359;-32
2023/04/03 10:54:24;;;;;;;2.00;1.60;;;;;;;-128.00;-1.00;-1.00;18453;297;7504365;-31
2023/04/03 10:56:56;;;;;;;1.50;0.80;;;;;;;-128.00;-1.00;-1.00;18461;348;7504590;-30
2023/04/03 10:59:31;;;;;;;7.50;1.00;;;;;;;-128.00;-1.00;-1.00;18459;310;7506015;-31
2023/04/03 11:02:04;;;;;;;3.00;0.80;;;;;;;-128.00;-1.00;-1.00;18469;296;7504290;-35
2023/04/03 11:04:31;;;;;;;5.50;1.00;;;;;;;-128.00;-1.00;-1.00;18436;298;7505811;-30
2023/04/03 11:45:54;;;;;;;1.70;0.70;;;;;;;-47.87;24.77;60182.86;99604;285;1003265;-33
2023/04/03 11:48:42;;;;;;;4.00;0.60;;;;;;;-128.00;-1.00;-1.00;97595;298;1003415;-31
2023/04/03 11:51:36;;;;;;;4.90;0.90;;;;;;;-128.00;-1.00;-1.00;97971;296;1003825;-31
2023/04/03 11:54:34;;;;;;;1.60;0.80;;;;;;;-128.00;-1.00;-1.00;97818;296;1003790;-34
2023/04/03 11:57:00;;;;;;;4.50;1.00;;;;;;;-128.00;-1.00;-1.00;97841;296;1003438;-33
2023/04/03 11:59:25;;;;;;;7.30;2.10;;;;;;;-128.00;-1.00;-1.00;97872;296;1003203;-29
2023/04/03 12:01:55;;;;;;;2.70;1.10;;;;;;;-128.00;-1.00;-1.00;97870;296;1003060;-34
2023/04/03 12:04:23;;;;;;;2.10;1.00;;;;;;;-128.00;-1.00;-1.00;97844;296;1003088;-30
2023/04/03 12:06:51;;;;;;;4.10;0.90;;;;;;;-128.00;-1.00;-1.00;97956;296;1003243;-30
2023/04/03 12:09:25;;;;;;;3.00;1.30;;;;;;;-128.00;-1.00;-1.00;97889;296;1002859;-31
2023/04/03 12:11:51;;;;;;;1.00;0.60;;;;;;;-128.00;-1.00;-1.00;97853;296;1004532;-33
2023/04/03 12:14:17;;;;;;;2.20;1.20;;;;;;;-128.00;-1.00;-1.00;97830;296;1004080;-37
2023/04/03 12:16:45;;;;;;;2.80;1.20;;;;;;;-128.00;-1.00;-1.00;97861;297;1003385;-34
2023/04/03 12:19:40;;;;;;;2.40;1.10;;;;;;;-128.00;-1.00;-1.00;97874;296;1003523;-34
2023/04/03 12:22:08;;;;;;;2.30;1.10;;;;;;;-128.00;-1.00;-1.00;97805;296;1002850;-30
2023/04/03 12:24:36;;;;;;;3.50;0.80;;;;;;;-128.00;-1.00;-1.00;97850;296;1002626;-33
2023/04/03 12:27:18;;;;;;;4.00;1.80;;;;;;;-128.00;-1.00;-1.00;97834;296;1003605;-30
2023/04/03 12:29:54;;;;;;;5.60;2.20;;;;;;;-128.00;-1.00;-1.00;97798;296;1003428;-29
2023/04/03 12:32:42;;;;;;;4.00;1.80;;;;;;;-128.00;-1.00;-1.00;97826;296;1003358;-33
2023/04/03 12:35:20;;;;;;;5.30;1.80;;;;;;;-128.00;-1.00;-1.00;97919;296;1003620;-34
2023/04/03 12:38:02;;;;;;;16.70;4.00;;;;;;;-128.00;-1.00;-1.00;97830;296;1003317;-31
2023/04/03 12:40:42;;;;;;;7.90;3.00;;;;;;;-128.00;-1.00;-1.00;97777;296;1003603;-33
2023/04/03 12:43:31;;;;;;;5.40;1.30;;;;;;;-128.00;-1.00;-1.00;97890;284;1002558;-29
2023/04/03 12:46:04;;;;;;;5.20;1.40;;;;;;;-128.00;-1.00;-1.00;97862;296;1002770;-29
2023/04/03 12:48:33;;;;;;;3.20;1.00;;;;;;;-128.00;-1.00;-1.00;97824;285;1002696;-30
2023/04/03 12:50:59;;;;;;;2.30;1.40;;;;;;;-128.00;-1.00;-1.00;97873;285;1005154;-30
2023/04/03 12:53:26;;;;;;;2.40;0.80;;;;;;;-128.00;-1.00;-1.00;97943;296;1004065;-31
2023/04/03 12:55:56;;;;;;;8.20;2.30;;;;;;;-128.00;-1.00;-1.00;97846;296;1002913;-30
2023/04/03 12:58:26;;;;;;;2.80;0.80;;;;;;;-128.00;-1.00;-1.00;97936;285;1004660;-29